Time;durP1;ratioP1;P1;durP2;ratioP2;P2;SDS_P1;SDS_P2;PMS_P1;PMS_P2;Temp;Humidity;BMP_temperature;BMP_pressure;BME280_temperature;BME280_humidity;BME280_pressure;Samples;Min_cycle;Max_cycle;Signal;HPM_P1;HPM_P2
2021/06/30 00:01:44;;;;;;;3.23;2.50;;;24.20;99.90;;;;;;5102159;28;20446;-68
2021/06/30 00:04:10;;;;;;;4.33;3.63;;;24.20;99.90;;;;;;5102538;28;20795;-70
2021/06/30 00:06:37;;;;;;;4.00;3.60;;;24.20;99.90;;;;;;5108649;28;20931;-68
2021/06/30 00:09:05;;;;;;;3.60;3.30;;;24.20;99.90;;;;;;5092582;28;20542;-68
2021/06/30 00:11:32;;;;;;;3.40;3.10;;;24.10;99.90;;;;;;5092648;28;20906;-69
2021/06/30 00:13:58;;;;;;;3.67;3.37;;;24.20;99.90;;;;;;5092792;28;20459;-69
2021/06/30 00:16:31;;;;;;;3.80;3.50;;;24.10;99.90;;;;;;5092451;28;20959;-69
2021/06/30 00:18:58;;;;;;;3.23;2.90;;;24.10;99.90;;;;;;5092828;28;20425;-71
2021/06/30 00:21:25;;;;;;;3.77;3.47;;;24.10;99.90;;;;;;5101165;28;20459;-69
2021/06/30 00:23:52;;;;;;;3.77;3.47;;;24.00;99.90;;;;;;5092252;28;20535;-71
2021/06/30 00:26:18;;;;;;;4.10;3.07;;;24.00;99.90;;;;;;5092164;28;20440;-71
2021/06/30 00:28:45;;;;;;;4.20;3.90;;;24.00;99.90;;;;;;5092262;28;20439;-71
2021/06/30 00:31:12;;;;;;;3.03;2.73;;;24.00;99.90;;;;;;5097848;28;20473;-71
2021/06/30 00:33:40;;;;;;;4.00;3.60;;;23.90;99.90;;;;;;5101200;28;20454;-70
2021/06/30 00:36:07;;;;;;;4.20;3.80;;;23.90;99.90;;;;;;5092361;28;20475;-71
2021/06/30 00:38:34;;;;;;;3.80;3.40;;;23.90;99.90;;;;;;5093331;28;20451;-70
2021/06/30 00:41:00;;;;;;;8.03;4.07;;;23.90;99.90;;;;;;5092164;28;20780;-71
2021/06/30 00:43:27;;;;;;;4.10;3.37;;;23.90;99.90;;;;;;5092214;28;20451;-70
2021/06/30 00:45:54;;;;;;;4.37;3.80;;;23.80;99.90;;;;;;5110786;28;20439;-70
2021/06/30 00:48:21;;;;;;;3.47;3.17;;;23.80;99.90;;;;;;5096030;28;20443;-70
2021/06/30 00:50:49;;;;;;;4.00;3.60;;;23.80;99.90;;;;;;5092201;28;20487;-70
2021/06/30 00:53:15;;;;;;;4.63;3.47;;;23.70;99.90;;;;;;5092391;28;20459;-70
2021/06/30 00:55:43;;;;;;;4.07;3.67;;;23.70;99.90;;;;;;5096091;28;20482;-70
2021/06/30 00:58:10;;;;;;;4.23;3.60;;;23.70;99.90;;;;;;5106064;28;20736;-70
2021/06/30 01:00:36;;;;;;;4.00;3.63;;;23.70;99.90;;;;;;5097574;28;20463;-70
2021/06/30 01:03:03;;;;;;;3.87;3.57;;;23.90;99.90;;;;;;5091865;28;20466;-70
2021/06/30 01:05:30;;;;;;;4.30;3.67;;;23.70;99.90;;;;;;5096982;28;20464;-70
2021/06/30 01:07:58;;;;;;;3.23;2.93;;;23.60;99.90;;;;;;5091471;28;20566;-71
2021/06/30 01:10:25;;;;;;;4.30;3.90;;;23.60;99.90;;;;;;5104327;28;20435;-70
2021/06/30 01:12:51;;;;;;;4.63;3.90;;;23.60;99.90;;;;;;5111683;28;20442;-70
2021/06/30 01:15:18;;;;;;;3.60;3.30;;;23.60;99.90;;;;;;5100304;28;20934;-70
2021/06/30 01:17:47;;;;;;;4.70;3.73;;;23.60;99.90;;;;;;5091897;28;20471;-71
2021/06/30 01:20:14;;;;;;;3.77;3.47;;;23.50;99.90;;;;;;5094500;28;20782;-70
2021/06/30 01:22:45;;;;;;;4.40;4.00;;;23.50;99.90;;;;;;5096235;28;20486;-71
2021/06/30 01:25:12;;;;;;;3.80;3.50;;;23.50;99.90;;;;;;5104992;28;20443;-71
2021/06/30 01:27:39;;;;;;;3.43;3.13;;;23.50;99.90;;;;;;5091425;28;20435;-70
2021/06/30 01:30:07;;;;;;;3.43;2.97;;;23.50;99.90;;;;;;5090737;28;20463;-71
2021/06/30 01:32:34;;;;;;;5.43;3.10;;;23.40;99.90;;;;;;5091238;28;20842;-70
2021/06/30 01:35:01;;;;;;;3.33;3.03;;;23.40;99.90;;;;;;5095107;28;20185;-71
2021/06/30 01:37:27;;;;;;;3.30;3.00;;;23.40;99.90;;;;;;5110451;28;20810;-71
2021/06/30 01:39:55;;;;;;;3.80;3.33;;;23.40;99.90;;;;;;5109268;28;20450;-71
2021/06/30 01:42:22;;;;;;;3.60;3.30;;;23.40;99.90;;;;;;5110875;28;20434;-70
2021/06/30 01:44:49;;;;;;;3.40;3.10;;;23.40;99.90;;;;;;5109029;28;20449;-70
2021/06/30 01:47:15;;;;;;;3.50;3.20;;;23.40;99.90;;;;;;5104287;28;20938;-70
2021/06/30 01:49:42;;;;;;;3.30;3.03;;;23.30;99.90;;;;;;5111781;28;20441;-70
2021/06/30 01:52:09;;;;;;;3.03;2.72;;;23.30;99.90;;;;;;5092017;28;20463;-70
2021/06/30 01:54:35;;;;;;;5.30;3.23;;;23.30;99.90;;;;;;5093677;28;20204;-70
2021/06/30 01:57:04;;;;;;;3.40;3.10;;;23.30;99.90;;;;;;5091041;28;20797;-70
2021/06/30 01:59:31;;;;;;;3.30;2.93;;;23.30;99.90;;;;;;5107427;28;20442;-70
2021/06/30 02:01:57;;;;;;;2.73;2.53;;;23.20;99.90;;;;;;5111447;28;20900;-70
2021/06/30 02:04:24;;;;;;;3.63;2.93;;;23.20;99.90;;;;;;5108753;28;20517;-70
2021/06/30 02:06:51;;;;;;;4.33;3.33;;;23.20;99.90;;;;;;5091033;28;20443;-70
2021/06/30 02:09:18;;;;;;;2.80;2.60;;;23.20;99.90;;;;;;5105895;28;20453;-70
2021/06/30 02:11:45;;;;;;;3.00;2.70;;;23.20;99.90;;;;;;5111482;28;20446;-70
2021/06/30 02:14:13;;;;;;;3.50;3.20;;;23.20;99.90;;;;;;5098205;28;20505;-70
2021/06/30 02:16:41;;;;;;;4.50;2.77;;;23.10;99.90;;;;;;5099187;28;20466;-70
2021/06/30 02:19:08;;;;;;;3.70;3.40;;;23.30;99.90;;;;;;5111141;28;20465;-70
2021/06/30 02:21:35;;;;;;;2.70;2.50;;;23.10;99.90;;;;;;5095092;28;20198;-70
2021/06/30 02:24:03;;;;;;;3.40;3.10;;;23.10;99.90;;;;;;5090809;28;20448;-70
2021/06/30 02:26:30;;;;;;;3.87;3.50;;;23.10;99.90;;;;;;5091000;28;20931;-70
2021/06/30 02:28:57;;;;;;;2.77;2.57;;;23.00;99.90;;;;;;5090857;28;20459;-70
2021/06/30 02:31:25;;;;;;;4.65;3.88;;;23.00;99.90;;;;;;5112426;28;20446;-69
2021/06/30 02:33:52;;;;;;;3.05;2.85;;;23.00;99.90;;;;;;5115248;28;20216;-70
2021/06/30 02:36:19;;;;;;;2.95;2.75;;;23.00;99.90;;;;;;5096520;28;20224;-70
2021/06/30 02:38:46;;;;;;;2.93;2.63;;;23.00;99.90;;;;;;5103457;28;20196;-70
2021/06/30 02:41:13;;;;;;;3.27;2.97;;;22.90;99.90;;;;;;5114469;28;20442;-70
2021/06/30 02:43:41;;;;;;;3.08;2.80;;;22.90;99.90;;;;;;5094595;28;20462;-69
2021/06/30 02:46:08;;;;;;;3.90;3.60;;;22.90;99.90;;;;;;5109880;28;20190;-70
2021/06/30 02:48:36;;;;;;;3.67;2.72;;;22.90;99.90;;;;;;5106403;27;20212;-70
2021/06/30 02:51:03;;;;;;;3.72;3.30;;;22.80;99.90;;;;;;5093850;28;20212;-70
2021/06/30 02:53:30;;;;;;;3.53;3.23;;;22.80;99.90;;;;;;5096385;28;20198;-70
2021/06/30 02:55:57;;;;;;;3.42;3.13;;;22.80;99.90;;;;;;5105459;28;20463;-70
2021/06/30 02:58:24;;;;;;;3.40;3.20;;;22.80;99.90;;;;;;5099160;28;20231;-70
2021/06/30 03:00:50;;;;;;;3.10;2.90;;;22.80;99.90;;;;;;5114525;28;20442;-70
2021/06/30 03:03:17;;;;;;;3.07;2.87;;;22.80;99.90;;;;;;5112971;28;20438;-70
2021/06/30 03:05:45;;;;;;;3.60;3.30;;;22.70;99.90;;;;;;5102443;28;20450;-71
2021/06/30 03:08:12;;;;;;;3.00;2.70;;;22.70;99.90;;;;;;5095987;28;20443;-70
2021/06/30 03:10:38;;;;;;;3.33;3.03;;;22.70;99.90;;;;;;5093972;28;20441;-70
2021/06/30 03:13:05;;;;;;;3.50;3.20;;;22.70;99.90;;;;;;5093689;28;20628;-69
2021/06/30 03:15:32;;;;;;;3.17;2.90;;;22.70;99.90;;;;;;5104247;28;20193;-70
2021/06/30 03:17:59;;;;;;;2.95;2.75;;;22.60;99.90;;;;;;5113825;28;20213;-70
2021/06/30 03:20:25;;;;;;;4.00;3.60;;;22.60;99.90;;;;;;5112623;28;20514;-70
2021/06/30 03:22:53;;;;;;;4.00;3.70;;;22.60;99.90;;;;;;5112430;28;20209;-70
2021/06/30 03:25:20;;;;;;;3.17;2.92;;;22.60;99.90;;;;;;5102285;28;20205;-70
2021/06/30 03:27:47;;;;;;;4.47;4.18;;;22.60;99.90;;;;;;5100905;28;20540;-70
2021/06/30 03:30:15;;;;;;;4.18;3.88;;;22.50;99.90;;;;;;5093704;28;20236;-70
2021/06/30 03:32:41;;;;;;;3.70;3.40;;;22.50;99.90;;;;;;5093363;28;20209;-70
2021/06/30 03:35:09;;;;;;;4.03;3.72;;;22.60;99.90;;;;;;5095181;28;20217;-70
2021/06/30 03:37:36;;;;;;;5.05;4.47;;;22.50;99.90;;;;;;5093043;28;20206;-71
2021/06/30 03:40:05;;;;;;;4.45;4.00;;;22.50;99.90;;;;;;5093901;28;20209;-70
2021/06/30 03:42:32;;;;;;;4.45;4.15;;;22.50;99.90;;;;;;5093387;28;20593;-70
2021/06/30 03:44:59;;;;;;;4.38;3.97;;;22.50;99.90;;;;;;5099992;28;20208;-70
2021/06/30 03:47:25;;;;;;;4.90;4.50;;;22.50;99.90;;;;;;5093329;28;20212;-71
2021/06/30 03:49:52;;;;;;;4.30;4.00;;;22.50;99.90;;;;;;5094891;28;20279;-70
2021/06/30 03:52:19;;;;;;;3.90;3.60;;;22.40;99.90;;;;;;5104027;28;20196;-71
2021/06/30 03:54:47;;;;;;;4.38;4.05;;;22.50;99.90;;;;;;5093289;28;20208;-71
2021/06/30 03:57:15;;;;;;;4.53;4.13;;;22.50;99.90;;;;;;5093098;28;20248;-70
2021/06/30 03:59:42;;;;;;;5.07;4.68;;;22.40;99.90;;;;;;5094097;28;20189;-70
2021/06/30 04:02:09;;;;;;;4.18;3.88;;;22.40;99.90;;;;;;5096905;28;20199;-69
2021/06/30 04:04:35;;;;;;;5.10;4.70;;;22.50;99.90;;;;;;5093730;28;20197;-70
2021/06/30 04:07:02;;;;;;;5.20;4.70;;;22.40;99.90;;;;;;5099207;28;20200;-70
2021/06/30 04:09:29;;;;;;;4.47;4.07;;;22.40;99.90;;;;;;5114241;28;20200;-71
2021/06/30 04:11:56;;;;;;;4.30;4.00;;;22.40;99.90;;;;;;5112123;28;20197;-70
2021/06/30 04:14:24;;;;;;;4.95;4.55;;;22.30;99.90;;;;;;5093579;28;20216;-70
2021/06/30 04:16:51;;;;;;;4.40;4.00;;;22.30;99.90;;;;;;5093437;28;20228;-70
2021/06/30 04:19:18;;;;;;;4.30;3.95;;;22.30;99.90;;;;;;5100584;28;20446;-70
2021/06/30 04:21:45;;;;;;;4.05;3.65;;;22.20;99.90;;;;;;5099578;28;20596;-70
2021/06/30 04:24:11;;;;;;;4.05;3.75;;;22.30;99.90;;;;;;5092369;28;20212;-70
2021/06/30 04:26:38;;;;;;;5.63;3.90;;;22.30;99.90;;;;;;5092112;28;20208;-70
2021/06/30 04:29:05;;;;;;;4.32;3.95;;;22.30;99.90;;;;;;5092226;28;20248;-70
2021/06/30 04:31:33;;;;;;;7.20;4.18;;;22.30;99.90;;;;;;5102211;28;20203;-70
2021/06/30 04:34:00;;;;;;;3.58;3.28;;;22.30;99.90;;;;;;5106310;28;20230;-71
2021/06/30 04:36:27;;;;;;;4.65;4.25;;;22.20;99.90;;;;;;5092455;28;20189;-71
2021/06/30 04:38:53;;;;;;;4.25;3.95;;;22.20;99.90;;;;;;5092031;28;20224;-71
2021/06/30 04:41:20;;;;;;;3.63;3.33;;;22.20;99.90;;;;;;5092193;28;20205;-71
2021/06/30 04:43:47;;;;;;;3.75;3.45;;;22.20;99.90;;;;;;5092342;28;20209;-70
2021/06/30 04:46:14;;;;;;;4.53;4.13;;;22.20;99.90;;;;;;5092044;28;20197;-70
2021/06/30 04:48:42;;;;;;;4.07;3.78;;;22.20;99.90;;;;;;5097394;28;20672;-70
2021/06/30 04:51:09;;;;;;;3.92;3.63;;;22.20;99.90;;;;;;5092330;28;20224;-70
2021/06/30 04:53:36;;;;;;;4.75;4.38;;;22.20;99.90;;;;;;5093006;28;20198;-72
2021/06/30 04:56:03;;;;;;;4.33;3.80;;;22.10;99.90;;;;;;5091902;28;20217;-71
2021/06/30 04:58:30;;;;;;;3.83;3.58;;;22.10;99.90;;;;;;5110171;28;20478;-71
2021/06/30 05:00:57;;;;;;;4.53;4.18;;;22.10;99.90;;;;;;5091926;28;20201;-71
2021/06/30 05:03:26;;;;;;;3.88;3.58;;;22.10;99.90;;;;;;5105729;28;20200;-71
2021/06/30 05:05:55;;;;;;;4.03;3.67;;;22.10;99.90;;;;;;5111775;28;20203;-71
2021/06/30 05:08:23;;;;;;;3.70;3.40;;;22.10;99.90;;;;;;5093755;28;20546;-71
2021/06/30 05:10:49;;;;;;;4.40;4.03;;;22.10;99.90;;;;;;5091740;28;20247;-71
2021/06/30 05:13:16;;;;;;;3.90;3.60;;;22.10;99.90;;;;;;5092781;28;20189;-71
2021/06/30 05:15:43;;;;;;;3.70;3.40;;;22.10;99.90;;;;;;5091258;28;20201;-71
2021/06/30 05:18:10;;;;;;;4.53;4.15;;;22.00;99.90;;;;;;5107054;28;20676;-71
2021/06/30 05:20:37;;;;;;;3.50;3.10;;;22.00;99.90;;;;;;5112091;28;20529;-70
2021/06/30 05:23:05;;;;;;;4.72;3.45;;;22.00;99.90;;;;;;5106539;28;20201;-70
2021/06/30 05:25:31;;;;;;;3.75;3.40;;;22.00;99.90;;;;;;5111798;28;20201;-71
2021/06/30 05:27:58;;;;;;;5.07;4.30;;;22.00;99.90;;;;;;5097666;28;20190;-70
2021/06/30 05:30:25;;;;;;;4.20;3.80;;;22.00;99.90;;;;;;5091427;28;20206;-71
2021/06/30 05:32:51;;;;;;;3.80;3.50;;;21.90;99.90;;;;;;5104197;28;20201;-70
2021/06/30 05:35:18;;;;;;;3.53;3.22;;;21.90;99.90;;;;;;5106855;28;20499;-70
2021/06/30 05:37:45;;;;;;;3.63;3.33;;;21.90;99.90;;;;;;5111658;28;20220;-69
2021/06/30 05:40:13;;;;;;;4.07;3.70;;;21.90;99.90;;;;;;5112006;28;20647;-71
2021/06/30 05:42:42;;;;;;;3.63;3.33;;;21.90;99.90;;;;;;5108418;28;20201;-71
2021/06/30 05:45:15;;;;;;;3.42;3.17;;;21.90;99.90;;;;;;5096491;28;20533;-70
2021/06/30 05:47:42;;;;;;;3.70;3.40;;;21.90;99.90;;;;;;5101802;28;20201;-70
2021/06/30 05:50:09;;;;;;;3.45;3.15;;;21.90;99.90;;;;;;5103342;28;20198;-70
2021/06/30 05:52:36;;;;;;;5.35;3.70;;;21.90;99.90;;;;;;5090888;28;20204;-70
2021/06/30 05:55:03;;;;;;;4.05;3.65;;;21.90;99.90;;;;;;5092010;28;20205;-71
2021/06/30 05:57:31;;;;;;;3.28;2.97;;;21.90;99.90;;;;;;5090713;28;20266;-70
2021/06/30 05:59:58;;;;;;;3.85;3.00;;;21.90;99.90;;;;;;5103928;28;20199;-70
2021/06/30 06:02:24;;;;;;;3.40;3.08;;;21.90;99.90;;;;;;5109130;28;20189;-70
2021/06/30 06:04:51;;;;;;;3.83;3.45;;;21.90;99.90;;;;;;5105183;28;20207;-70
2021/06/30 06:07:18;;;;;;;3.60;3.30;;;21.80;99.90;;;;;;5115088;28;20200;-70
2021/06/30 06:09:44;;;;;;;3.22;3.03;;;21.80;99.90;;;;;;5114772;28;20626;-71
2021/06/30 06:12:11;;;;;;;2.70;2.50;;;21.80;99.90;;;;;;5105723;28;20534;-70
2021/06/30 06:14:39;;;;;;;3.22;3.03;;;21.80;99.90;;;;;;5103293;28;20282;-70
2021/06/30 06:17:06;;;;;;;2.88;2.67;;;21.80;99.90;;;;;;5113305;28;20286;-70
2021/06/30 06:19:33;;;;;;;2.95;2.75;;;21.80;99.90;;;;;;5098922;28;20203;-70
2021/06/30 06:22:00;;;;;;;3.13;2.92;;;21.80;99.90;;;;;;5112938;28;20548;-70
2021/06/30 06:24:27;;;;;;;3.25;2.97;;;21.90;99.90;;;;;;5096657;28;20193;-70
2021/06/30 06:26:54;;;;;;;2.90;2.70;;;21.80;99.90;;;;;;5094382;28;20201;-70
2021/06/30 06:29:20;;;;;;;2.55;2.25;;;21.80;99.90;;;;;;5095583;28;20194;-70
2021/06/30 06:31:49;;;;;;;2.85;2.55;;;21.80;99.90;;;;;;5102473;28;20206;-69
2021/06/30 06:34:19;;;;;;;3.05;2.80;;;21.90;99.90;;;;;;5095029;28;20630;-75
2021/06/30 06:36:47;;;;;;;2.78;2.58;;;22.00;99.90;;;;;;5106983;28;20197;-70
2021/06/30 06:39:14;;;;;;;3.42;2.80;;;21.90;99.90;;;;;;5113101;28;20230;-70
2021/06/30 06:41:41;;;;;;;3.63;3.33;;;22.00;99.90;;;;;;5113137;28;20198;-74
2021/06/30 06:44:08;;;;;;;3.60;3.30;;;22.10;99.90;;;;;;5105373;28;20204;-70
2021/06/30 06:46:35;;;;;;;3.65;3.35;;;22.10;99.90;;;;;;5104157;28;20194;-70
2021/06/30 06:49:03;;;;;;;9.43;5.32;;;22.10;99.90;;;;;;5107992;28;20194;-70
2021/06/30 06:51:29;;;;;;;3.40;3.10;;;22.10;99.90;;;;;;5111925;28;20207;-70
2021/06/30 06:53:56;;;;;;;3.65;3.35;;;22.00;99.90;;;;;;5099446;28;20291;-71
2021/06/30 06:56:26;;;;;;;3.22;3.03;;;22.00;99.90;;;;;;5094435;28;20189;-70
2021/06/30 06:58:53;;;;;;;3.28;2.97;;;22.00;99.90;;;;;;5092028;28;20266;-70
2021/06/30 07:01:19;;;;;;;3.20;2.83;;;21.90;99.90;;;;;;5094739;28;20921;-70
2021/06/30 07:03:46;;;;;;;3.58;3.25;;;21.90;99.90;;;;;;5092192;28;20206;-70
2021/06/30 07:06:15;;;;;;;3.17;2.97;;;21.90;99.90;;;;;;5092287;28;20189;-70
2021/06/30 07:08:41;;;;;;;3.60;3.00;;;21.90;99.90;;;;;;5097612;28;20618;-70
2021/06/30 07:11:09;;;;;;;2.80;2.60;;;21.90;99.90;;;;;;5092996;28;20210;-70
2021/06/30 07:13:36;;;;;;;2.58;2.38;;;21.90;99.90;;;;;;5095544;28;20229;-70
2021/06/30 07:16:04;;;;;;;3.00;2.70;;;21.90;99.90;;;;;;5106328;28;20197;-70
2021/06/30 07:18:31;;;;;;;3.10;2.80;;;21.90;99.90;;;;;;5097087;28;20205;-70
2021/06/30 07:20:58;;;;;;;2.58;2.38;;;22.00;99.90;;;;;;5099360;28;20506;-70
2021/06/30 07:23:26;;;;;;;2.92;2.60;;;22.10;99.90;;;;;;5108969;28;20220;-70
2021/06/30 07:25:52;;;;;;;2.78;2.58;;;22.20;99.90;;;;;;5111360;28;20205;-70
2021/06/30 07:28:19;;;;;;;2.60;2.40;;;22.30;99.90;;;;;;5094389;28;20205;-70
2021/06/30 07:30:46;;;;;;;2.63;2.42;;;22.40;99.90;;;;;;5093188;28;20212;-70
2021/06/30 07:33:13;;;;;;;1.75;1.65;;;22.50;99.90;;;;;;5093787;28;20210;-70
2021/06/30 07:35:40;;;;;;;2.40;2.00;;;22.60;99.90;;;;;;5094650;28;20224;-70
2021/06/30 07:38:07;;;;;;;2.23;2.03;;;22.70;99.90;;;;;;5110385;28;20216;-70
2021/06/30 07:40:35;;;;;;;2.42;2.22;;;22.80;99.90;;;;;;5113642;28;20915;-70
2021/06/30 07:43:03;;;;;;;2.87;2.10;;;22.80;99.90;;;;;;5112893;28;20193;-70
2021/06/30 07:45:30;;;;;;;2.25;2.05;;;23.10;99.90;;;;;;5104424;28;21227;-70
2021/06/30 07:47:57;;;;;;;2.07;1.87;;;22.90;99.90;;;;;;5113319;28;20239;-69
2021/06/30 07:50:24;;;;;;;2.13;1.93;;;22.90;99.90;;;;;;5111824;28;20438;-70
2021/06/30 07:52:52;;;;;;;1.83;1.70;;;22.90;99.90;;;;;;5099699;28;20465;-70
2021/06/30 07:55:20;;;;;;;2.53;2.33;;;23.10;99.90;;;;;;5096395;28;20556;-70
2021/06/30 07:57:48;;;;;;;2.75;2.17;;;23.10;99.90;;;;;;5054973;28;1081092;-70
2021/06/30 08:00:15;;;;;;;2.90;2.70;;;23.20;99.90;;;;;;5096021;28;20212;-70
2021/06/30 08:02:42;;;;;;;2.33;2.10;;;23.40;99.90;;;;;;5104468;28;20443;-70
2021/06/30 08:05:10;;;;;;;1.83;1.73;;;23.50;99.90;;;;;;5093954;28;20458;-71
2021/06/30 08:07:38;;;;;;;1.80;1.70;;;23.70;99.90;;;;;;5104357;28;20442;-71
2021/06/30 08:10:06;;;;;;;2.30;2.10;;;23.70;99.90;;;;;;5105567;28;20447;-70
2021/06/30 08:12:33;;;;;;;2.20;2.00;;;23.80;99.90;;;;;;5092559;28;20198;-70
2021/06/30 08:15:01;;;;;;;3.43;1.60;;;23.90;99.90;;;;;;5091810;28;20466;-71
2021/06/30 08:17:28;;;;;;;2.57;1.90;;;23.90;99.90;;;;;;5090332;28;20462;-70
2021/06/30 08:19:55;;;;;;;2.47;1.80;;;24.00;99.90;;;;;;5091673;28;20501;-70
2021/06/30 08:22:21;;;;;;;1.73;1.63;;;24.10;99.90;;;;;;5105681;28;20455;-71
2021/06/30 08:24:48;;;;;;;1.70;1.60;;;24.20;99.90;;;;;;5109205;28;20907;-70
2021/06/30 08:27:15;;;;;;;1.70;1.60;;;24.30;99.90;;;;;;5101455;28;20446;-69
2021/06/30 08:29:43;;;;;;;3.13;1.73;;;24.30;99.90;;;;;;5098847;28;20578;-70
2021/06/30 08:32:12;;;;;;;2.13;1.93;;;24.40;99.90;;;;;;5111661;28;20193;-70
2021/06/30 08:34:38;;;;;;;1.63;1.47;;;24.50;99.90;;;;;;5097046;28;20459;-70
2021/06/30 08:37:07;;;;;;;2.70;1.33;;;24.60;99.90;;;;;;5104888;28;20438;-70
2021/06/30 08:39:34;;;;;;;1.77;1.67;;;24.60;99.90;;;;;;5108114;28;20462;-69
2021/06/30 08:42:01;;;;;;;1.50;1.40;;;24.60;99.90;;;;;;5104804;28;20462;-70
2021/06/30 08:44:28;;;;;;;1.73;1.50;;;24.70;99.90;;;;;;5097872;28;20201;-69
2021/06/30 08:46:57;;;;;;;2.00;1.67;;;24.80;99.90;;;;;;5092462;28;20478;-68
2021/06/30 08:49:27;;;;;;;2.00;1.87;;;24.80;99.90;;;;;;5092844;28;20445;-69
2021/06/30 08:51:55;;;;;;;1.57;1.47;;;24.70;99.90;;;;;;5092649;28;20443;-68
2021/06/30 08:54:23;;;;;;;2.20;2.00;;;24.60;99.90;;;;;;5095330;28;20440;-69
2021/06/30 08:56:52;;;;;;;1.57;1.40;;;24.40;99.90;;;;;;5098182;28;20958;-68
2021/06/30 08:59:18;;;;;;;2.20;2.00;;;24.70;99.90;;;;;;5106078;28;20478;-69
2021/06/30 09:01:45;;;;;;;1.93;1.73;;;24.20;99.90;;;;;;5111524;28;20197;-69
2021/06/30 09:04:13;;;;;;;1.97;1.70;;;24.10;99.90;;;;;;5098147;28;20483;-69
2021/06/30 09:06:41;;;;;;;1.73;1.63;;;24.10;99.90;;;;;;5091149;28;20447;-69
2021/06/30 09:09:12;;;;;;;1.33;1.23;;;24.10;99.90;;;;;;5102306;28;20447;-69
2021/06/30 09:11:39;;;;;;;1.93;1.37;;;24.20;99.90;;;;;;5094162;28;20454;-69
2021/06/30 09:14:12;;;;;;;2.67;1.87;;;24.30;99.90;;;;;;5099931;28;20469;-69
2021/06/30 09:16:59;;;;;;;1.93;1.83;;;24.30;99.90;;;;;;5111752;28;20431;-69
2021/06/30 09:19:52;;;;;;;1.77;1.67;;;24.40;99.90;;;;;;5110846;28;20798;-69
2021/06/30 09:22:23;;;;;;;3.33;1.80;;;24.40;99.90;;;;;;5101228;28;20942;-69
2021/06/30 09:24:51;;;;;;;2.37;1.80;;;24.40;99.90;;;;;;5107507;28;20454;-69
2021/06/30 09:27:18;;;;;;;2.40;1.93;;;24.30;99.90;;;;;;5110987;28;20443;-69
2021/06/30 09:29:45;;;;;;;1.53;1.43;;;24.30;99.90;;;;;;5101823;28;20463;-70
2021/06/30 09:32:13;;;;;;;2.50;2.30;;;24.30;99.90;;;;;;5096602;28;20462;-69
2021/06/30 09:34:41;;;;;;;2.10;1.90;;;24.30;99.90;;;;;;5102692;28;20430;-70
2021/06/30 09:37:10;;;;;;;2.60;1.90;;;24.20;99.90;;;;;;5091145;28;20450;-70
2021/06/30 09:39:52;;;;;;;2.00;1.43;;;24.20;99.90;;;;;;5095043;28;20586;-70
2021/06/30 09:42:19;;;;;;;2.07;1.60;;;24.20;99.90;;;;;;5105405;28;20442;-70
2021/06/30 09:44:46;;;;;;;4.83;1.90;;;24.30;99.90;;;;;;5091243;28;20459;-70
2021/06/30 09:47:13;;;;;;;1.65;1.55;;;24.30;99.90;;;;;;5104838;28;20462;-70
2021/06/30 09:49:41;;;;;;;2.17;1.87;;;24.40;99.90;;;;;;5091087;28;20768;-70
2021/06/30 09:52:10;;;;;;;2.00;1.80;;;24.50;99.90;;;;;;5109987;28;20443;-71
2021/06/30 09:54:41;;;;;;;2.40;1.63;;;24.40;99.90;;;;;;5102507;28;20527;-69
2021/06/30 09:57:10;;;;;;;3.73;1.93;;;24.50;99.90;;;;;;5097165;28;20432;-70
2021/06/30 09:59:39;;;;;;;1.77;1.67;;;24.40;99.90;;;;;;5071122;28;20845;-70
2021/06/30 10:02:08;;;;;;;4.80;1.55;;;24.50;99.90;;;;;;5076427;28;20439;-70
2021/06/30 10:04:36;;;;;;;1.52;1.42;;;24.50;99.90;;;;;;5082663;28;20198;-69
2021/06/30 10:07:10;;;;;;;3.03;1.70;;;24.60;99.90;;;;;;5091227;28;20193;-70
2021/06/30 10:09:40;;;;;;;2.15;2.05;;;24.60;99.90;;;;;;5089596;28;20497;-70
2021/06/30 10:12:10;;;;;;;1.70;1.60;;;24.60;99.90;;;;;;5088476;28;20205;-70
2021/06/30 10:14:38;;;;;;;2.50;2.00;;;24.60;99.90;;;;;;5085592;28;20444;-70
2021/06/30 10:17:07;;;;;;;2.17;1.97;;;24.50;99.90;;;;;;5071786;28;20969;-70
2021/06/30 10:19:34;;;;;;;2.50;2.37;;;24.50;99.90;;;;;;5072306;28;20535;-70
2021/06/30 10:22:02;;;;;;;2.33;1.95;;;24.40;99.90;;;;;;5082087;28;20470;-70
2021/06/30 10:24:28;;;;;;;2.60;2.40;;;24.40;99.90;;;;;;5084809;28;20200;-70
2021/06/30 10:26:57;;;;;;;3.57;2.10;;;24.30;99.90;;;;;;5091658;28;20564;-70
2021/06/30 10:29:25;;;;;;;2.43;2.23;;;24.20;99.90;;;;;;5082437;28;20487;-69
2021/06/30 10:31:55;;;;;;;3.57;2.17;;;24.20;99.90;;;;;;5089080;28;20477;-69
2021/06/30 10:34:35;;;;;;;2.47;2.27;;;24.20;99.90;;;;;;5089572;28;20436;-70
2021/06/30 10:37:01;;;;;;;2.97;2.60;;;24.20;99.90;;;;;;5091852;28;20493;-69
2021/06/30 10:39:42;;;;;;;2.60;2.50;;;24.20;99.90;;;;;;5081926;28;20479;-70
2021/06/30 10:42:22;;;;;;;2.83;2.47;;;24.20;99.90;;;;;;5075433;28;20465;-71
2021/06/30 10:44:52;;;;;;;3.23;3.00;;;24.20;99.90;;;;;;5082269;28;20741;-69
2021/06/30 10:47:40;;;;;;;6.90;3.07;;;24.20;99.90;;;;;;5071198;28;20943;-70
2021/06/30 10:50:31;;;;;;;3.83;3.53;;;24.20;99.90;;;;;;5071063;28;20452;-70
2021/06/30 10:53:36;;;;;;;2.47;2.27;;;24.20;99.90;;;;;;5076289;28;20456;-70
2021/06/30 10:56:11;;;;;;;2.73;2.50;;;24.20;99.90;;;;;;5074043;28;20456;-70
2021/06/30 10:58:40;;;;;;;3.07;2.87;;;24.20;99.90;;;;;;5085778;28;20553;-70
2021/06/30 11:01:15;;;;;;;3.37;3.17;;;24.30;99.90;;;;;;5109027;28;20468;-69
2021/06/30 11:03:47;;;;;;;6.00;5.20;;;24.30;99.90;;;;;;5112079;28;20597;-69
2021/06/30 11:06:26;;;;;;;4.20;3.80;;;24.30;99.90;;;;;;5094914;28;20439;-69
2021/06/30 11:08:54;;;;;;;5.23;4.60;;;24.20;99.90;;;;;;5109512;28;20530;-69
2021/06/30 11:11:51;;;;;;;5.60;5.10;;;24.40;99.90;;;;;;5114069;28;20447;-69
2021/06/30 11:14:20;;;;;;;4.17;3.87;;;24.30;99.90;;;;;;5115037;28;20220;-69
2021/06/30 11:16:54;;;;;;;4.70;4.30;;;24.30;99.90;;;;;;5113917;28;20463;-70
2021/06/30 11:19:43;;;;;;;5.80;5.30;;;24.30;99.90;;;;;;5111087;28;20471;-69
2021/06/30 11:22:24;;;;;;;4.40;4.10;;;24.30;99.90;;;;;;5109934;28;20457;-69
2021/06/30 11:24:51;;;;;;;5.80;5.10;;;24.20;99.90;;;;;;5094909;28;20209;-70
2021/06/30 11:27:45;;;;;;;6.90;6.30;;;24.60;99.90;;;;;;5094731;28;20455;-69
2021/06/30 11:30:37;;;;;;;5.95;5.40;;;24.30;99.90;;;;;;5104417;28;20430;-69
2021/06/30 11:33:13;;;;;;;6.13;5.53;;;24.30;99.90;;;;;;5114994;28;20487;-69
2021/06/30 11:35:45;;;;;;;7.47;6.77;;;24.30;99.90;;;;;;5097156;28;20461;-69
2021/06/30 11:38:15;;;;;;;6.70;6.03;;;24.30;99.90;;;;;;5094378;28;20436;-69
2021/06/30 11:40:56;;;;;;;8.30;7.10;;;23.80;99.90;;;;;;5107959;28;20471;-69
2021/06/30 11:43:27;;;;;;;6.80;6.20;;;24.20;99.90;;;;;;5108261;28;20509;-69
2021/06/30 11:45:58;;;;;;;6.07;5.47;;;24.20;99.90;;;;;;5113680;28;20445;-69
2021/06/30 11:48:27;;;;;;;7.23;6.33;;;24.20;99.90;;;;;;5101522;28;20459;-69
2021/06/30 11:50:56;;;;;;;9.50;6.87;;;24.30;99.90;;;;;;5108530;28;20775;-69
2021/06/30 11:53:53;;;;;;;6.93;6.23;;;24.30;99.90;;;;;;5098507;28;20466;-68
2021/06/30 11:56:38;;;;;;;7.97;7.18;;;24.20;99.90;;;;;;5112967;28;20446;-69
2021/06/30 11:59:07;;;;;;;6.20;5.60;;;24.20;99.90;;;;;;5111483;28;20228;-68
2021/06/30 12:01:39;;;;;;;6.73;6.20;;;23.70;99.90;;;;;;5092617;28;20451;-69
2021/06/30 12:04:23;;;;;;;6.82;6.22;;;24.30;99.90;;;;;;5092227;28;20443;-69
2021/06/30 12:06:55;;;;;;;7.27;6.50;;;24.20;99.90;;;;;;5094557;28;20194;-70
2021/06/30 12:09:23;;;;;;;7.10;6.50;;;24.50;99.90;;;;;;5099572;28;20531;-69
2021/06/30 12:11:54;;;;;;;6.60;6.00;;;24.30;99.90;;;;;;5113213;28;20210;-68
2021/06/30 12:14:23;;;;;;;6.53;5.93;;;24.30;99.90;;;;;;5105161;28;20460;-69
2021/06/30 12:17:02;;;;;;;6.37;5.77;;;24.30;99.90;;;;;;5101079;28;20469;-69
2021/06/30 12:19:37;;;;;;;6.00;5.60;;;24.30;99.90;;;;;;5095622;28;20959;-69
2021/06/30 12:22:20;;;;;;;5.47;4.97;;;24.40;99.90;;;;;;5111322;28;20474;-68
2021/06/30 12:24:51;;;;;;;6.40;5.80;;;24.40;99.90;;;;;;5092389;28;20535;-69
2021/06/30 12:27:17;;;;;;;6.70;6.10;;;24.40;99.90;;;;;;5100615;28;20903;-69
2021/06/30 12:29:44;;;;;;;5.73;5.23;;;24.50;99.90;;;;;;5113475;28;20915;-69
2021/06/30 12:32:15;;;;;;;5.77;5.37;;;24.50;99.90;;;;;;5112276;28;20791;-69
2021/06/30 12:34:42;;;;;;;6.17;5.57;;;24.50;99.90;;;;;;5104855;28;20440;-69
2021/06/30 12:37:10;;;;;;;6.53;5.97;;;24.50;99.90;;;;;;5110580;28;20457;-69
2021/06/30 12:39:39;;;;;;;5.73;5.23;;;24.60;99.90;;;;;;5099165;28;20478;-69
2021/06/30 12:42:08;;;;;;;5.03;4.63;;;24.60;99.90;;;;;;5099702;28;20509;-69
2021/06/30 12:44:54;;;;;;;5.30;4.90;;;24.60;99.90;;;;;;5092401;28;20439;-70
2021/06/30 12:47:22;;;;;;;5.20;4.80;;;24.60;99.90;;;;;;5097755;28;20180;-70
2021/06/30 12:50:03;;;;;;;6.10;5.60;;;24.60;99.90;;;;;;5098598;28;20920;-70
2021/06/30 12:52:31;;;;;;;4.77;4.37;;;24.60;99.90;;;;;;5091988;28;20457;-69
2021/06/30 12:55:12;;;;;;;4.77;4.47;;;24.60;99.90;;;;;;5091728;28;20543;-69
2021/06/30 12:58:03;;;;;;;4.80;4.50;;;24.60;99.90;;;;;;5091648;28;20532;-69